Time;durP1;ratioP1;P1;durP2;ratioP2;P2;SDS_P1;SDS_P2;PMS_P1;PMS_P2;Temp;Humidity;BMP_temperature;BMP_pressure;BME280_temperature;BME280_humidity;BME280_pressure;Samples;Min_cycle;Max_cycle;Signal;HPM_P1;HPM_P2
2021/08/20 00:02:24;;;;;;;5.25;1.45;;;;;;;;;;4956148;29;20062;-66
2021/08/20 00:04:52;;;;;;;2.30;1.27;;;;;;;;;;4956365;28;20492;-66
2021/08/20 00:07:21;;;;;;;2.33;1.42;;;;;;;;;;4956276;29;20047;-66
2021/08/20 00:09:50;;;;;;;2.20;1.55;;;;;;;;;;4955128;29;20047;-68
2021/08/20 00:12:19;;;;;;;2.42;1.50;;;;;;;;;;4955072;29;20490;-64
2021/08/20 00:14:48;;;;;;;2.55;1.40;;;;;;;;;;4953966;29;20055;-67
2021/08/20 00:17:16;;;;;;;2.10;1.30;;;;;;;;;;4954952;29;20058;-69
2021/08/20 00:19:44;;;;;;;2.20;1.48;;;;;;;;;;4954939;29;20058;-66
2021/08/20 00:22:12;;;;;;;3.00;1.42;;;;;;;;;;4955091;29;20039;-65
2021/08/20 00:24:41;;;;;;;3.53;1.33;;;;;;;;;;4954009;29;20054;-66
2021/08/20 00:27:09;;;;;;;2.97;1.40;;;;;;;;;;4954583;29;20051;-67
2021/08/20 00:29:39;;;;;;;2.17;1.60;;;;;;;;;;4954680;29;20057;-68
2021/08/20 00:32:07;;;;;;;1.90;1.33;;;;;;;;;;4954292;29;20055;-66
2021/08/20 00:34:36;;;;;;;3.15;1.88;;;;;;;;;;4953950;29;20039;-69
2021/08/20 00:37:04;;;;;;;3.70;2.10;;;;;;;;;;4966783;28;20058;-66
2021/08/20 00:39:32;;;;;;;3.58;1.38;;;;;;;;;;4973335;28;20047;-66
2021/08/20 00:42:01;;;;;;;1.95;1.15;;;;;;;;;;4973262;28;20047;-66
2021/08/20 00:44:29;;;;;;;2.50;1.30;;;;;;;;;;4973343;28;20039;-67
2021/08/20 00:46:59;;;;;;;2.80;1.33;;;;;;;;;;4964656;28;20141;-69
2021/08/20 00:49:27;;;;;;;1.35;1.15;;;;;;;;;;4954520;29;20195;-66
2021/08/20 00:51:55;;;;;;;2.40;1.65;;;;;;;;;;4953820;29;20138;-66
2021/08/20 00:54:24;;;;;;;2.58;1.52;;;;;;;;;;4953610;29;20062;-67
2021/08/20 00:56:52;;;;;;;2.55;1.30;;;;;;;;;;4954129;28;20134;-66
2021/08/20 00:59:20;;;;;;;3.05;1.40;;;;;;;;;;4953434;28;20079;-67
2021/08/20 01:01:48;;;;;;;5.10;1.33;;;;;;;;;;4991778;23;20081;-59
2021/08/20 01:04:18;;;;;;;3.47;1.50;;;;;;;;;;4992328;28;20042;-59
2021/08/20 01:06:46;;;;;;;2.80;1.58;;;;;;;;;;4992388;28;20164;-58
2021/08/20 01:09:15;;;;;;;5.40;1.63;;;;;;;;;;4992748;28;20529;-59
2021/08/20 01:11:44;;;;;;;3.05;1.40;;;;;;;;;;4991823;28;20046;-58
2021/08/20 01:14:16;;;;;;;1.80;1.30;;;;;;;;;;4992206;28;20046;-58
2021/08/20 01:16:44;;;;;;;2.85;1.42;;;;;;;;;;4992402;28;20495;-58
2021/08/20 01:19:12;;;;;;;4.20;2.03;;;;;;;;;;4988930;28;20138;-58
2021/08/20 01:21:42;;;;;;;2.85;1.50;;;;;;;;;;4991771;28;20129;-59
2021/08/20 01:24:11;;;;;;;1.95;1.05;;;;;;;;;;4991966;28;20070;-59
2021/08/20 01:26:40;;;;;;;4.72;1.52;;;;;;;;;;4992421;28;20055;-59
2021/08/20 01:29:08;;;;;;;3.08;1.75;;;;;;;;;;4992220;28;20077;-60
2021/08/20 01:31:37;;;;;;;2.28;1.50;;;;;;;;;;4992328;28;20065;-58
2021/08/20 01:34:05;;;;;;;2.72;1.65;;;;;;;;;;4991664;28;20054;-58
2021/08/20 01:36:33;;;;;;;2.35;1.38;;;;;;;;;;4992648;28;20137;-59
2021/08/20 01:39:01;;;;;;;3.15;1.60;;;;;;;;;;4992019;28;20413;-58
2021/08/20 01:41:30;;;;;;;4.65;1.83;;;;;;;;;;4991601;28;20056;-58
2021/08/20 01:44:00;;;;;;;2.85;1.73;;;;;;;;;;4991555;28;20054;-58
2021/08/20 01:46:29;;;;;;;2.63;1.30;;;;;;;;;;4992073;28;20054;-58
2021/08/20 01:48:58;;;;;;;3.38;1.80;;;;;;;;;;4991968;28;20520;-58
2021/08/20 01:51:27;;;;;;;2.17;1.50;;;;;;;;;;4991938;28;20129;-58
2021/08/20 01:53:56;;;;;;;3.33;1.50;;;;;;;;;;4991439;28;20064;-58
2021/08/20 01:56:25;;;;;;;3.08;1.50;;;;;;;;;;4972424;28;20046;-60
2021/08/20 01:58:54;;;;;;;2.50;1.40;;;;;;;;;;4977807;28;20524;-58
2021/08/20 02:01:31;;;;;;;3.25;1.60;;;;;;;;;;4991502;28;20066;-58
2021/08/20 02:04:00;;;;;;;3.13;1.73;;;;;;;;;;4991169;28;20108;-58
2021/08/20 02:06:28;;;;;;;6.82;1.67;;;;;;;;;;4991629;28;20145;-58
2021/08/20 02:08:56;;;;;;;3.05;1.65;;;;;;;;;;4986693;28;20172;-59
2021/08/20 02:11:24;;;;;;;5.07;1.58;;;;;;;;;;4982063;28;20053;-60
2021/08/20 02:13:53;;;;;;;3.13;1.80;;;;;;;;;;4997449;28;20058;-59
2021/08/20 02:16:21;;;;;;;3.13;1.75;;;;;;;;;;4997843;28;20050;-59
2021/08/20 02:18:51;;;;;;;2.10;1.40;;;;;;;;;;4998783;28;20514;-58
2021/08/20 02:21:19;;;;;;;2.10;1.40;;;;;;;;;;4997811;28;20138;-59
2021/08/20 02:23:47;;;;;;;3.22;1.80;;;;;;;;;;4998232;28;20469;-58
2021/08/20 02:26:15;;;;;;;2.20;1.60;;;;;;;;;;4998187;28;20137;-59
2021/08/20 02:28:44;;;;;;;3.17;1.63;;;;;;;;;;4998122;28;20046;-58
2021/08/20 02:31:12;;;;;;;5.65;1.85;;;;;;;;;;4998012;28;20137;-59
2021/08/20 02:33:44;;;;;;;4.60;1.60;;;;;;;;;;4997294;28;20589;-58
2021/08/20 02:36:14;;;;;;;1.65;1.20;;;;;;;;;;4998045;28;20050;-58
2021/08/20 02:38:43;;;;;;;3.72;2.35;;;;;;;;;;4998436;28;20051;-58
2021/08/20 02:41:11;;;;;;;2.33;1.58;;;;;;;;;;4997811;28;20093;-58
2021/08/20 02:43:39;;;;;;;2.38;1.40;;;;;;;;;;4997648;28;20050;-59
2021/08/20 02:46:07;;;;;;;4.28;1.55;;;;;;;;;;4998063;28;20061;-59
2021/08/20 02:48:36;;;;;;;2.25;1.38;;;;;;;;;;4998527;28;20046;-58
2021/08/20 02:51:07;;;;;;;2.83;1.70;;;;;;;;;;4997686;28;20513;-58
2021/08/20 02:53:36;;;;;;;3.33;1.85;;;;;;;;;;4997791;28;20137;-58
2021/08/20 02:56:05;;;;;;;3.58;1.85;;;;;;;;;;4994083;28;20043;-58
2021/08/20 02:58:33;;;;;;;2.15;1.70;;;;;;;;;;4978877;28;20050;-59
2021/08/20 03:01:01;;;;;;;2.90;1.95;;;;;;;;;;4977960;28;20407;-58
2021/08/20 03:03:30;;;;;;;2.40;1.48;;;;;;;;;;4991904;28;20057;-58
2021/08/20 03:05:58;;;;;;;2.45;1.58;;;;;;;;;;4997638;28;20084;-58
2021/08/20 03:08:27;;;;;;;4.28;1.60;;;;;;;;;;4998136;28;20054;-59
2021/08/20 03:10:56;;;;;;;2.50;1.63;;;;;;;;;;4997310;28;20046;-58
2021/08/20 03:13:24;;;;;;;2.78;1.65;;;;;;;;;;4997836;28;20050;-58
2021/08/20 03:15:53;;;;;;;5.55;1.50;;;;;;;;;;4997515;28;20050;-58
2021/08/20 03:18:21;;;;;;;3.20;1.83;;;;;;;;;;4997888;28;20058;-58
2021/08/20 03:20:49;;;;;;;1.60;1.38;;;;;;;;;;4998035;28;20057;-58
2021/08/20 03:23:17;;;;;;;2.78;1.60;;;;;;;;;;4994397;28;20046;-59
2021/08/20 03:25:58;;;;;;;2.18;1.35;;;;;;;;;;3402576;28;10021373;-59
2021/08/20 03:28:26;;;;;;;1.83;1.50;;;;;;;;;;2582369;28;10001930;-58
2021/08/20 03:30:55;;;;;;;3.80;1.60;;;;;;;;;;4995214;28;20054;-58
2021/08/20 03:33:23;;;;;;;3.17;1.75;;;;;;;;;;4994625;28;20092;-59
2021/08/20 03:35:51;;;;;;;3.55;1.85;;;;;;;;;;4994258;28;20495;-58
2021/08/20 03:38:19;;;;;;;3.92;1.60;;;;;;;;;;4994136;28;20050;-58
2021/08/20 03:40:49;;;;;;;2.58;1.50;;;;;;;;;;4994800;28;20050;-58
2021/08/20 03:43:18;;;;;;;2.50;1.38;;;;;;;;;;4994420;28;20053;-58
2021/08/20 03:45:46;;;;;;;2.53;1.60;;;;;;;;;;4994042;28;20082;-58
2021/08/20 03:48:15;;;;;;;5.10;1.65;;;;;;;;;;4994174;28;20129;-59
2021/08/20 03:50:43;;;;;;;2.88;1.75;;;;;;;;;;4994255;28;20054;-58
2021/08/20 03:53:11;;;;;;;2.47;1.60;;;;;;;;;;4994611;28;20066;-58
2021/08/20 03:55:39;;;;;;;2.20;1.58;;;;;;;;;;4992839;28;20050;-58
2021/08/20 03:58:08;;;;;;;3.65;2.20;;;;;;;;;;4975383;28;20418;-59
2021/08/20 04:00:38;;;;;;;3.88;1.80;;;;;;;;;;4974264;28;20050;-60
2021/08/20 04:03:07;;;;;;;3.38;2.20;;;;;;;;;;4985189;28;20050;-58
2021/08/20 04:05:35;;;;;;;2.97;1.90;;;;;;;;;;4993986;28;20460;-59
2021/08/20 04:08:03;;;;;;;3.60;2.15;;;;;;;;;;4994533;28;20081;-58
2021/08/20 04:10:32;;;;;;;3.28;2.10;;;;;;;;;;4993803;28;20050;-58
2021/08/20 04:13:00;;;;;;;2.60;1.92;;;;;;;;;;4994199;28;20467;-59
2021/08/20 04:15:28;;;;;;;3.58;1.92;;;;;;;;;;4994073;28;20054;-59
2021/08/20 04:17:58;;;;;;;4.32;2.17;;;;;;;;;;4994089;28;20046;-58
2021/08/20 04:20:26;;;;;;;5.30;2.05;;;;;;;;;;4994271;28;20137;-58
2021/08/20 04:22:55;;;;;;;4.43;2.10;;;;;;;;;;4996407;28;20114;-58
2021/08/20 04:25:23;;;;;;;3.58;1.90;;;;;;;;;;4995754;28;20133;-59
2021/08/20 04:27:52;;;;;;;3.28;2.15;;;;;;;;;;4996340;28;20086;-59
2021/08/20 04:30:21;;;;;;;4.15;2.30;;;;;;;;;;4996109;28;20054;-60
2021/08/20 04:32:49;;;;;;;4.38;2.13;;;;;;;;;;4994775;28;20082;-58
2021/08/20 04:35:20;;;;;;;4.32;2.00;;;;;;;;;;4992372;28;20071;-59
2021/08/20 04:37:48;;;;;;;4.13;2.10;;;;;;;;;;4993694;28;20093;-57
2021/08/20 04:40:16;;;;;;;2.85;2.15;;;;;;;;;;4993433;28;20574;-59
2021/08/20 04:42:44;;;;;;;3.85;2.45;;;;;;;;;;4992985;28;20050;-59
2021/08/20 04:45:15;;;;;;;3.53;2.20;;;;;;;;;;4992681;28;20077;-58
2021/08/20 04:47:44;;;;;;;4.60;2.10;;;;;;;;;;4993066;28;20141;-58
2021/08/20 04:50:13;;;;;;;4.95;2.22;;;;;;;;;;4993206;28;20096;-59
2021/08/20 04:52:43;;;;;;;5.10;2.47;;;;;;;;;;4993408;28;20145;-58
2021/08/20 04:55:11;;;;;;;2.85;1.80;;;;;;;;;;4993372;28;20074;-58
2021/08/20 04:57:39;;;;;;;3.13;2.08;;;;;;;;;;4976531;28;20042;-60
2021/08/20 05:00:08;;;;;;;3.75;2.15;;;;;;;;;;4989804;28;20476;-58
2021/08/20 05:02:37;;;;;;;3.90;2.05;;;;;;;;;;4993137;28;20085;-58
2021/08/20 05:05:06;;;;;;;4.25;1.88;;;;;;;;;;4992769;28;20138;-58
2021/08/20 05:07:35;;;;;;;3.65;1.80;;;;;;;;;;4992619;28;20473;-59
2021/08/20 05:10:09;;;;;;;3.03;2.08;;;;;;;;;;4993446;28;20113;-58
2021/08/20 05:12:38;;;;;;;4.37;1.93;;;;;;;;;;4993470;28;20046;-59
2021/08/20 05:15:07;;;;;;;2.60;1.88;;;;;;;;;;4992518;28;20101;-58
2021/08/20 05:17:35;;;;;;;3.00;2.10;;;;;;;;;;4993044;28;20050;-58
2021/08/20 05:20:04;;;;;;;3.17;2.28;;;;;;;;;;4992965;28;20100;-59
2021/08/20 05:22:42;;;;;;;2.80;1.95;;;;;;;;;;4984163;28;20129;-58
2021/08/20 05:25:15;;;;;;;2.88;1.88;;;;;;;;;;4973331;28;20054;-59
2021/08/20 05:27:44;;;;;;;6.15;2.10;;;;;;;;;;4973467;28;20105;-59
2021/08/20 05:30:13;;;;;;;7.13;2.20;;;;;;;;;;4973548;28;20137;-58
2021/08/20 05:32:41;;;;;;;5.63;2.35;;;;;;;;;;4973445;28;20150;-59
2021/08/20 05:35:11;;;;;;;6.20;2.50;;;;;;;;;;4975452;28;20042;-59
2021/08/20 05:37:39;;;;;;;4.20;2.13;;;;;;;;;;4992701;28;20476;-58
2021/08/20 05:40:08;;;;;;;3.88;2.63;;;;;;;;;;4993323;28;20138;-58
2021/08/20 05:42:38;;;;;;;4.10;2.33;;;;;;;;;;4993417;28;20096;-58
2021/08/20 05:45:08;;;;;;;4.70;2.15;;;;;;;;;;4991932;28;20054;-58
2021/08/20 05:47:36;;;;;;;4.18;2.42;;;;;;;;;;4992690;28;20092;-59
2021/08/20 05:50:04;;;;;;;8.65;3.15;;;;;;;;;;4992386;28;20062;-59
2021/08/20 05:52:32;;;;;;;3.42;2.33;;;;;;;;;;4992435;28;20509;-58
2021/08/20 05:55:01;;;;;;;4.45;2.60;;;;;;;;;;4992470;28;20046;-58
2021/08/20 05:57:29;;;;;;;4.68;2.90;;;;;;;;;;4993017;28;20050;-58
2021/08/20 05:59:59;;;;;;;4.63;2.75;;;;;;;;;;4993251;28;20050;-58
2021/08/20 06:02:27;;;;;;;4.97;2.58;;;;;;;;;;4993161;28;20054;-59
2021/08/20 06:04:56;;;;;;;5.93;3.67;;;;;;;;;;4991676;28;20057;-58
2021/08/20 06:07:24;;;;;;;5.53;2.28;;;;;;;;;;4992806;28;20051;-59
2021/08/20 06:09:52;;;;;;;4.55;2.83;;;;;;;;;;4988247;28;20054;-58
2021/08/20 06:12:20;;;;;;;4.78;2.65;;;;;;;;;;4992633;28;20050;-58
2021/08/20 06:14:49;;;;;;;6.40;3.13;;;;;;;;;;4991677;28;20133;-58
2021/08/20 06:17:19;;;;;;;4.85;2.90;;;;;;;;;;4992246;28;20142;-59
2021/08/20 06:19:47;;;;;;;4.82;2.60;;;;;;;;;;4992449;28;20141;-58
2021/08/20 06:22:16;;;;;;;4.45;2.60;;;;;;;;;;4992663;28;20054;-58
2021/08/20 06:24:44;;;;;;;7.18;2.90;;;;;;;;;;4990832;28;20145;-59
2021/08/20 06:27:12;;;;;;;4.53;2.42;;;;;;;;;;4991735;28;20047;-59
2021/08/20 06:29:40;;;;;;;4.13;2.97;;;;;;;;;;4991682;28;20056;-59
2021/08/20 06:32:09;;;;;;;7.80;3.55;;;;;;;;;;4991610;28;20437;-59
2021/08/20 06:34:39;;;;;;;6.57;3.58;;;;;;;;;;4991164;28;20085;-58
2021/08/20 06:37:07;;;;;;;7.05;3.22;;;;;;;;;;4992548;28;20137;-58
2021/08/20 06:39:35;;;;;;;4.30;2.70;;;;;;;;;;4991785;28;20137;-58
2021/08/20 06:42:04;;;;;;;4.82;3.00;;;;;;;;;;4992005;28;20120;-58
2021/08/20 06:44:32;;;;;;;7.55;3.03;;;;;;;;;;4991099;28;20069;-58
2021/08/20 06:47:00;;;;;;;5.22;3.13;;;;;;;;;;4991843;28;20153;-58
2021/08/20 06:49:29;;;;;;;8.38;4.07;;;;;;;;;;4991844;28;20145;-59
2021/08/20 06:51:58;;;;;;;5.28;2.58;;;;;;;;;;4991952;28;20078;-59
2021/08/20 06:54:27;;;;;;;5.97;3.38;;;;;;;;;;4990974;28;20051;-58
2021/08/20 06:56:55;;;;;;;5.35;3.05;;;;;;;;;;4980969;28;20114;-59
2021/08/20 06:59:23;;;;;;;4.10;2.72;;;;;;;;;;4976296;28;20119;-58
2021/08/20 07:01:51;;;;;;;5.78;3.35;;;;;;;;;;4991847;28;20097;-59
2021/08/20 07:04:20;;;;;;;5.65;2.88;;;;;;;;;;4994638;28;20125;-58
2021/08/20 07:06:48;;;;;;;7.93;3.25;;;;;;;;;;4995578;28;20066;-58
2021/08/20 07:09:18;;;;;;;5.15;2.75;;;;;;;;;;4995493;28;20054;-59
2021/08/20 07:11:46;;;;;;;6.53;3.55;;;;;;;;;;4995905;28;20121;-58
2021/08/20 07:14:14;;;;;;;6.32;3.30;;;;;;;;;;4993851;28;20141;-58
2021/08/20 07:16:43;;;;;;;7.30;3.55;;;;;;;;;;4994946;28;20085;-58
2021/08/20 07:19:11;;;;;;;6.00;3.40;;;;;;;;;;4995043;28;20081;-58
2021/08/20 07:21:40;;;;;;;7.72;3.25;;;;;;;;;;4994846;28;20081;-60
2021/08/20 07:24:08;;;;;;;8.38;3.30;;;;;;;;;;4994822;28;20054;-58
2021/08/20 07:26:38;;;;;;;5.13;3.10;;;;;;;;;;4994894;28;20462;-58
2021/08/20 07:29:06;;;;;;;4.50;2.78;;;;;;;;;;4995028;28;20340;-58
2021/08/20 07:31:35;;;;;;;7.28;3.13;;;;;;;;;;4994955;28;20130;-59
2021/08/20 07:34:04;;;;;;;5.93;3.53;;;;;;;;;;4994231;28;20078;-58
2021/08/20 07:36:33;;;;;;;8.95;3.83;;;;;;;;;;4994748;28;20638;-58
2021/08/20 07:39:01;;;;;;;5.95;3.15;;;;;;;;;;4995269;28;20107;-59
2021/08/20 07:41:30;;;;;;;6.68;2.90;;;;;;;;;;4994658;28;20109;-58
2021/08/20 07:43:59;;;;;;;4.60;2.90;;;;;;;;;;4994395;28;20089;-59
2021/08/20 07:46:28;;;;;;;4.43;2.90;;;;;;;;;;4994445;28;20129;-58
2021/08/20 07:48:56;;;;;;;5.22;2.90;;;;;;;;;;4994199;28;20089;-59
2021/08/20 07:51:25;;;;;;;8.02;3.38;;;;;;;;;;4994837;28;20051;-59
2021/08/20 07:53:53;;;;;;;6.53;3.95;;;;;;;;;;4993722;28;20051;-58
2021/08/20 07:56:22;;;;;;;7.22;3.50;;;;;;;;;;4988090;28;20056;-58
2021/08/20 07:58:50;;;;;;;5.63;3.38;;;;;;;;;;4985101;28;20053;-58
2021/08/20 08:01:20;;;;;;;6.45;3.10;;;;;;;;;;4994396;28;20058;-58
2021/08/20 08:03:48;;;;;;;4.80;2.50;;;;;;;;;;4994016;28;20126;-58
2021/08/20 08:06:18;;;;;;;8.07;3.42;;;;;;;;;;4994454;28;20053;-58
2021/08/20 08:08:46;;;;;;;7.35;3.45;;;;;;;;;;4994136;28;20054;-58
2021/08/20 08:11:14;;;;;;;7.25;3.40;;;;;;;;;;4994667;28;20478;-58
2021/08/20 08:13:43;;;;;;;5.38;3.53;;;;;;;;;;4993346;28;20112;-58
2021/08/20 08:16:11;;;;;;;7.55;3.33;;;;;;;;;;4993678;28;20388;-58
2021/08/20 08:18:41;;;;;;;6.30;3.20;;;;;;;;;;4994470;28;20046;-59
2021/08/20 08:21:09;;;;;;;9.30;3.22;;;;;;;;;;4993849;28;20082;-59
2021/08/20 08:23:38;;;;;;;5.68;3.13;;;;;;;;;;4994161;28;20054;-59
2021/08/20 08:26:07;;;;;;;7.47;3.30;;;;;;;;;;4993546;28;20137;-59
2021/08/20 08:28:35;;;;;;;6.90;3.22;;;;;;;;;;4994074;28;20157;-58
2021/08/20 08:31:04;;;;;;;6.70;3.15;;;;;;;;;;4994082;28;20406;-58
2021/08/20 08:33:32;;;;;;;7.03;3.35;;;;;;;;;;4992808;28;20088;-58
2021/08/20 08:36:03;;;;;;;7.05;3.53;;;;;;;;;;4993246;28;20050;-58
2021/08/20 08:38:31;;;;;;;5.75;3.50;;;;;;;;;;4993423;28;20427;-58
2021/08/20 08:40:59;;;;;;;7.28;3.40;;;;;;;;;;4993318;28;20133;-59
2021/08/20 08:43:28;;;;;;;5.72;3.50;;;;;;;;;;4992645;28;20433;-58
2021/08/20 08:45:56;;;;;;;5.75;3.17;;;;;;;;;;4992875;28;20096;-59
2021/08/20 08:48:25;;;;;;;7.28;4.05;;;;;;;;;;4993274;28;20053;-60
2021/08/20 08:50:54;;;;;;;5.45;3.17;;;;;;;;;;4992787;28;20049;-58
2021/08/20 08:53:24;;;;;;;6.03;3.08;;;;;;;;;;4992899;28;20081;-58
2021/08/20 08:55:59;;;;;;;5.80;3.58;;;;;;;;;;4987188;28;20046;-58
2021/08/20 08:58:27;;;;;;;7.53;3.55;;;;;;;;;;4973993;28;20133;-58
2021/08/20 09:00:55;;;;;;;6.70;3.50;;;;;;;;;;4989881;28;20082;-58
2021/08/20 09:03:25;;;;;;;6.68;2.63;;;;;;;;;;4993750;28;20053;-59
2021/08/20 09:05:54;;;;;;;7.05;3.40;;;;;;;;;;4992320;28;20050;-58
2021/08/20 09:08:24;;;;;;;6.60;3.92;;;;;;;;;;4992385;28;20078;-58
2021/08/20 09:10:53;;;;;;;6.60;4.13;;;;;;;;;;4973643;28;20134;-58
2021/08/20 09:13:22;;;;;;;6.88;4.00;;;;;;;;;;4976198;28;20055;-58
2021/08/20 09:16:05;;;;;;;6.47;3.50;;;;;;;;;;4991997;28;20104;-59
2021/08/20 09:18:34;;;;;;;7.47;4.60;;;;;;;;;;4974160;28;20110;-58
2021/08/20 09:21:02;;;;;;;6.47;4.15;;;;;;;;;;4972377;28;20134;-58
2021/08/20 09:23:32;;;;;;;6.25;4.07;;;;;;;;;;4972536;28;20412;-58
2021/08/20 09:26:02;;;;;;;6.93;4.28;;;;;;;;;;4972713;28;20661;-58
2021/08/20 09:28:31;;;;;;;7.63;3.72;;;;;;;;;;4973575;28;20081;-58
2021/08/20 09:31:04;;;;;;;6.65;4.03;;;;;;;;;;4972749;28;20050;-58
2021/08/20 09:33:33;;;;;;;9.48;5.55;;;;;;;;;;4978202;28;20470;-58
2021/08/20 09:36:03;;;;;;;6.25;4.07;;;;;;;;;;4992112;28;20152;-58
2021/08/20 09:38:34;;;;;;;7.90;4.13;;;;;;;;;;4992319;28;20489;-59
2021/08/20 09:41:05;;;;;;;6.97;3.88;;;;;;;;;;4992704;28;20133;-58
2021/08/20 09:43:36;;;;;;;7.38;3.95;;;;;;;;;;4992201;28;20458;-58
2021/08/20 09:46:06;;;;;;;8.13;4.25;;;;;;;;;;4993057;28;20049;-58
2021/08/20 09:48:46;;;;;;;4.68;2.97;;;;;;;;;;4992593;28;20058;-58
2021/08/20 09:51:33;;;;;;;5.15;3.13;;;;;;;;;;4992710;28;20054;-58
2021/08/20 09:54:04;;;;;;;7.93;4.10;;;;;;;;;;4991936;28;20459;-59
2021/08/20 09:56:47;;;;;;;6.70;3.95;;;;;;;;;;4982184;28;20406;-59
2021/08/20 09:59:16;;;;;;;8.55;3.13;;;;;;;;;;4973121;28;20097;-58
2021/08/20 10:01:45;;;;;;;6.82;3.45;;;;;;;;;;4972656;28;20055;-58
2021/08/20 10:04:14;;;;;;;6.93;3.60;;;;;;;;;;4991955;28;20052;-58
2021/08/20 10:06:43;;;;;;;7.22;3.47;;;;;;;;;;4992024;28;20141;-59
2021/08/20 10:09:13;;;;;;;5.72;2.88;;;;;;;;;;4992305;28;20355;-58
2021/08/20 10:11:47;;;;;;;7.93;3.70;;;;;;;;;;4992055;28;20137;-58
2021/08/20 10:14:16;;;;;;;4.97;3.10;;;;;;;;;;4991840;28;20201;-58
2021/08/20 10:16:44;;;;;;;6.32;3.30;;;;;;;;;;4991659;28;20050;-59
2021/08/20 10:19:13;;;;;;;4.10;2.60;;;;;;;;;;4991914;28;20057;-59
2021/08/20 10:21:42;;;;;;;3.10;1.85;;;;;;;;;;4992246;28;20056;-58
2021/08/20 10:24:11;;;;;;;3.10;1.92;;;;;;;;;;4991438;28;20138;-59
2021/08/20 10:26:41;;;;;;;3.42;1.90;;;;;;;;;;4991817;28;20051;-60
2021/08/20 10:29:10;;;;;;;3.28;1.58;;;;;;;;;;4992213;28;20108;-59
2021/08/20 10:31:42;;;;;;;2.75;1.70;;;;;;;;;;4993796;28;20050;-59
2021/08/20 10:34:29;;;;;;;3.35;1.90;;;;;;;;;;4995737;28;20073;-59
2021/08/20 10:37:04;;;;;;;4.05;1.92;;;;;;;;;;4995761;28;20130;-58
2021/08/20 10:39:32;;;;;;;3.00;1.88;;;;;;;;;;4995476;28;20483;-58
2021/08/20 10:42:07;;;;;;;3.33;1.70;;;;;;;;;;4995340;28;20043;-58
2021/08/20 10:44:35;;;;;;;4.20;2.25;;;;;;;;;;4995202;28;20130;-59
2021/08/20 10:47:04;;;;;;;4.57;1.90;;;;;;;;;;4995431;28;20212;-58
2021/08/20 10:49:46;;;;;;;4.15;1.88;;;;;;;;;;4995615;28;20524;-59
2021/08/20 10:52:24;;;;;;;3.08;1.98;;;;;;;;;;4995552;28;20125;-58
2021/08/20 10:55:20;;;;;;;3.40;1.67;;;;;;;;;;4994695;28;20144;-58
2021/08/20 10:57:56;;;;;;;3.40;1.85;;;;;;;;;;4978592;28;20069;-58
2021/08/20 11:00:26;;;;;;;2.90;1.70;;;;;;;;;;4995068;28;20514;-58
2021/08/20 11:02:55;;;;;;;3.45;1.85;;;;;;;;;;4995045;28;20379;-58
2021/08/20 11:05:43;;;;;;;2.70;1.65;;;;;;;;;;4994607;28;20081;-58
2021/08/20 11:08:30;;;;;;;3.65;1.92;;;;;;;;;;4994431;28;20053;-58
2021/08/20 11:10:59;;;;;;;3.42;1.70;;;;;;;;;;4975872;28;20086;-58
2021/08/20 11:13:29;;;;;;;2.72;1.92;;;;;;;;;;4975036;28;20448;-59
2021/08/20 11:15:59;;;;;;;3.80;1.88;;;;;;;;;;4984893;28;20153;-58
2021/08/20 11:18:41;;;;;;;2.95;1.58;;;;;;;;;;4994807;28;20387;-58
2021/08/20 11:21:10;;;;;;;3.70;1.50;;;;;;;;;;4993502;28;20042;-59
2021/08/20 11:23:38;;;;;;;3.00;1.77;;;;;;;;;;4993861;28;20054;-59
2021/08/20 11:26:06;;;;;;;1.92;1.20;;;;;;;;;;4995462;28;20046;-59
2021/08/20 11:28:40;;;;;;;2.50;1.65;;;;;;;;;;4994557;28;20472;-58
2021/08/20 11:31:10;;;;;;;3.28;1.63;;;;;;;;;;4995052;28;20391;-58
2021/08/20 11:33:39;;;;;;;2.08;1.38;;;;;;;;;;4994437;28;20059;-59
2021/08/20 11:36:08;;;;;;;3.30;1.80;;;;;;;;;;4995430;28;20084;-58
2021/08/20 11:38:38;;;;;;;2.95;1.55;;;;;;;;;;4996159;28;20525;-58
2021/08/20 11:41:09;;;;;;;2.70;1.70;;;;;;;;;;4998619;28;20089;-58
2021/08/20 11:43:56;;;;;;;2.67;1.55;;;;;;;;;;4997541;28;20126;-58
2021/08/20 11:46:25;;;;;;;3.15;1.67;;;;;;;;;;4999343;28;20050;-58
2021/08/20 11:48:54;;;;;;;4.50;1.73;;;;;;;;;;4998814;28;20114;-59
2021/08/20 11:51:26;;;;;;;3.40;1.50;;;;;;;;;;4980082;28;20412;-59
2021/08/20 11:53:55;;;;;;;2.13;1.40;;;;;;;;;;4979020;28;20055;-58
2021/08/20 11:56:23;;;;;;;1.92;1.27;;;;;;;;;;4979654;28;20078;-59
2021/08/20 11:58:52;;;;;;;3.83;1.67;;;;;;;;;;4979094;28;20093;-59
2021/08/20 12:01:27;;;;;;;2.78;1.73;;;;;;;;;;4980311;28;20051;-59
2021/08/20 12:03:58;;;;;;;2.60;1.70;;;;;;;;;;4995739;28;20050;-59
2021/08/20 12:06:27;;;;;;;3.15;1.65;;;;;;;;;;4999609;28;20129;-59
2021/08/20 12:08:57;;;;;;;2.65;1.50;;;;;;;;;;4999082;28;20530;-58
2021/08/20 12:11:30;;;;;;;2.75;1.80;;;;;;;;;;4999895;28;20415;-59
2021/08/20 12:13:59;;;;;;;2.50;1.42;;;;;;;;;;4998926;28;20292;-58
2021/08/20 12:16:42;;;;;;;2.42;1.50;;;;;;;;;;4999628;28;20065;-60
2021/08/20 12:19:14;;;;;;;2.83;1.63;;;;;;;;;;4999354;28;20092;-59
2021/08/20 12:21:44;;;;;;;4.15;1.48;;;;;;;;;;4998944;28;20057;-59
2021/08/20 12:24:13;;;;;;;3.75;1.60;;;;;;;;;;4998574;28;20077;-59
2021/08/20 12:26:42;;;;;;;1.98;1.33;;;;;;;;;;4998639;28;20050;-59
2021/08/20 12:29:15;;;;;;;2.33;1.35;;;;;;;;;;4999337;28;20050;-60
2021/08/20 12:31:56;;;;;;;2.88;1.80;;;;;;;;;;4998654;28;20111;-59
2021/08/20 12:34:28;;;;;;;2.88;1.60;;;;;;;;;;4999243;28;20046;-59
2021/08/20 12:36:57;;;;;;;2.65;1.60;;;;;;;;;;5000066;28;20085;-59
2021/08/20 12:39:34;;;;;;;3.13;1.65;;;;;;;;;;4999216;28;20526;-58
2021/08/20 12:42:24;;;;;;;2.28;1.38;;;;;;;;;;4998983;28;20133;-59
2021/08/20 12:45:09;;;;;;;3.05;1.70;;;;;;;;;;4999331;28;20050;-60
2021/08/20 12:48:03;;;;;;;3.10;1.80;;;;;;;;;;4998982;28;20046;-59
2021/08/20 12:50:32;;;;;;;3.58;1.80;;;;;;;;;;4999106;28;20047;-59
2021/08/20 12:53:02;;;;;;;2.97;1.60;;;;;;;;;;4998836;28;20541;-59
2021/08/20 12:55:31;;;;;;;3.03;1.58;;;;;;;;;;4997613;28;20050;-59
2021/08/20 12:58:00;;;;;;;3.25;1.80;;;;;;;;;;4989187;28;20054;-59
2021/08/20 13:00:31;;;;;;;2.67;1.60;;;;;;;;;;4999088;28;20109;-59
2021/08/20 13:03:01;;;;;;;2.92;1.83;;;;;;;;;;4999109;28;20054;-59
2021/08/20 13:05:51;;;;;;;2.30;1.35;;;;;;;;;;4999303;28;20054;-59
2021/08/20 13:08:19;;;;;;;2.58;1.52;;;;;;;;;;4998921;28;20049;-59
2021/08/20 13:10:47;;;;;;;2.05;1.50;;;;;;;;;;4998395;28;20141;-59
2021/08/20 13:13:16;;;;;;;2.53;1.50;;;;;;;;;;4997508;28;20129;-59
2021/08/20 13:15:45;;;;;;;2.22;1.40;;;;;;;;;;4994919;28;20133;-59
2021/08/20 13:18:15;;;;;;;2.40;1.45;;;;;;;;;;4998461;28;20132;-59
2021/08/20 13:20:45;;;;;;;4.55;2.00;;;;;;;;;;4998245;28;20054;-59
2021/08/20 13:23:13;;;;;;;2.20;1.42;;;;;;;;;;4998347;28;20070;-59
2021/08/20 13:25:42;;;;;;;2.60;1.40;;;;;;;;;;4998554;28;20106;-60
2021/08/20 13:28:10;;;;;;;2.47;1.50;;;;;;;;;;4998918;28;20060;-58
2021/08/20 13:30:40;;;;;;;2.25;1.30;;;;;;;;;;4998222;28;20161;-59
2021/08/20 13:33:08;;;;;;;3.03;1.63;;;;;;;;;;4998559;28;20108;-59
2021/08/20 13:35:36;;;;;;;2.78;1.58;;;;;;;;;;4998460;28;20054;-59
2021/08/20 13:38:06;;;;;;;2.47;1.58;;;;;;;;;;4998771;28;20455;-59
2021/08/20 13:40:35;;;;;;;2.40;1.42;;;;;;;;;;4998316;28;20058;-59
2021/08/20 13:43:09;;;;;;;1.85;1.50;;;;;;;;;;4997699;28;20142;-59
2021/08/20 13:45:38;;;;;;;2.20;1.40;;;;;;;;;;4997947;28;20081;-59
2021/08/20 13:48:06;;;;;;;2.88;1.50;;;;;;;;;;4997819;28;20101;-58
2021/08/20 13:50:35;;;;;;;1.98;1.20;;;;;;;;;;4997429;28;20053;-58
2021/08/20 13:53:04;;;;;;;4.10;1.52;;;;;;;;;;4996661;28;20062;-60
2021/08/20 13:55:35;;;;;;;1.80;1.40;;;;;;;;;;4996754;28;20106;-59
2021/08/20 13:58:04;;;;;;;2.38;1.38;;;;;;;;;;4986370;28;20085;-60
2021/08/20 14:00:34;;;;;;;2.10;1.33;;;;;;;;;;4996673;28;20460;-59
2021/08/20 14:03:02;;;;;;;3.80;1.45;;;;;;;;;;4996516;28;20085;-59
2021/08/20 14:05:33;;;;;;;2.17;1.38;;;;;;;;;;4996271;28;20477;-59
2021/08/20 14:08:02;;;;;;;2.80;1.75;;;;;;;;;;4997809;28;20050;-59
2021/08/20 14:10:30;;;;;;;2.17;1.55;;;;;;;;;;4997998;28;20137;-59
2021/08/20 14:13:00;;;;;;;4.05;1.52;;;;;;;;;;4997139;28;20457;-59
2021/08/20 14:15:29;;;;;;;2.55;1.70;;;;;;;;;;4996513;28;20054;-58
2021/08/20 14:17:57;;;;;;;3.20;1.70;;;;;;;;;;4997474;28;20093;-59
2021/08/20 14:20:25;;;;;;;3.28;1.80;;;;;;;;;;4998520;28;20114;-60
2021/08/20 14:22:54;;;;;;;3.05;1.48;;;;;;;;;;4997926;28;20053;-59
2021/08/20 14:25:23;;;;;;;2.53;1.50;;;;;;;;;;4998084;28;20431;-59
2021/08/20 14:27:52;;;;;;;4.43;1.98;;;;;;;;;;4997995;28;20462;-59
2021/08/20 14:30:22;;;;;;;2.53;1.42;;;;;;;;;;4998064;28;20164;-60
2021/08/20 14:32:50;;;;;;;3.30;1.83;;;;;;;;;;4998737;28;20043;-59
2021/08/20 14:35:19;;;;;;;3.05;1.60;;;;;;;;;;4998658;28;20105;-59
2021/08/20 14:37:47;;;;;;;3.08;1.67;;;;;;;;;;4998467;28;20106;-59
2021/08/20 14:40:16;;;;;;;3.13;1.83;;;;;;;;;;4998238;28;20050;-59
2021/08/20 14:42:44;;;;;;;3.28;1.58;;;;;;;;;;4997664;28;20155;-60
2021/08/20 14:45:13;;;;;;;2.67;1.80;;;;;;;;;;4997786;28;20141;-60
2021/08/20 14:47:42;;;;;;;1.73;1.45;;;;;;;;;;4998398;28;20134;-60
2021/08/20 14:50:11;;;;;;;2.42;1.50;;;;;;;;;;4998261;28;20723;-60
2021/08/20 14:52:40;;;;;;;1.85;1.30;;;;;;;;;;4998939;28;20380;-59
2021/08/20 14:55:08;;;;;;;3.10;1.38;;;;;;;;;;4997896;28;20558;-59
2021/08/20 14:57:37;;;;;;;3.25;1.50;;;;;;;;;;4993598;28;20042;-58
2021/08/20 15:00:06;;;;;;;2.72;1.75;;;;;;;;;;4990208;28;20050;-58